sensor_id;sensor_type;location;lat;lon;timestamp;temperature;humidity
52016;DHT22;38032;53.326;6.472;2022-11-20T00:01:43;2.40;99.90
52016;DHT22;38032;53.326;6.472;2022-11-20T00:04:10;2.50;99.90
52016;DHT22;38032;53.326;6.472;2022-11-20T00:06:37;2.50;99.90
52016;DHT22;38032;53.326;6.472;2022-11-20T00:09:03;2.50;99.90
52016;DHT22;38032;53.326;6.472;2022-11-20T00:11:31;2.50;99.90
52016;DHT22;38032;53.326;6.472;2022-11-20T00:14:00;2.50;99.90
52016;DHT22;38032;53.326;6.472;2022-11-20T00:16:28;2.50;99.90
52016;DHT22;38032;53.326;6.472;2022-11-20T00:18:54;2.50;99.90
52016;DHT22;38032;53.326;6.472;2022-11-20T00:21:22;2.50;99.90
52016;DHT22;38032;53.326;6.472;2022-11-20T00:23:49;2.50;99.90
52016;DHT22;38032;53.326;6.472;2022-11-20T00:26:17;2.50;99.90
52016;DHT22;38032;53.326;6.472;2022-11-20T00:28:48;2.50;99.90
52016;DHT22;38032;53.326;6.472;2022-11-20T00:31:16;2.50;99.90
52016;DHT22;38032;53.326;6.472;2022-11-20T00:33:43;2.50;99.90
52016;DHT22;38032;53.326;6.472;2022-11-20T00:36:12;2.50;99.90
52016;DHT22;38032;53.326;6.472;2022-11-20T00:38:38;2.60;99.90
52016;DHT22;38032;53.326;6.472;2022-11-20T00:41:06;2.60;99.90
52016;DHT22;38032;53.326;6.472;2022-11-20T00:43:33;2.60;99.90
52016;DHT22;38032;53.326;6.472;2022-11-20T00:46:00;2.60;99.90
52016;DHT22;38032;53.326;6.472;2022-11-20T00:48:26;2.60;99.90
52016;DHT22;38032;53.326;6.472;2022-11-20T00:50:53;2.60;99.90
52016;DHT22;38032;53.326;6.472;2022-11-20T00:53:20;2.60;99.90
52016;DHT22;38032;53.326;6.472;2022-11-20T00:55:54;2.60;99.90
52016;DHT22;38032;53.326;6.472;2022-11-20T00:58:20;2.70;99.90
52016;DHT22;38032;53.326;6.472;2022-11-20T01:00:46;2.70;99.90
52016;DHT22;38032;53.326;6.472;2022-11-20T01:03:12;2.80;99.90
52016;DHT22;38032;53.326;6.472;2022-11-20T01:05:38;2.80;99.90
52016;DHT22;38032;53.326;6.472;2022-11-20T01:08:04;2.80;99.90
52016;DHT22;38032;53.326;6.472;2022-11-20T01:10:30;2.80;99.90
52016;DHT22;38032;53.326;6.472;2022-11-20T01:12:56;2.80;99.90
52016;DHT22;38032;53.326;6.472;2022-11-20T01:15:40;2.80;99.90
52016;DHT22;38032;53.326;6.472;2022-11-20T01:18:06;2.90;99.90
52016;DHT22;38032;53.326;6.472;2022-11-20T01:20:35;2.90;99.90
52016;DHT22;38032;53.326;6.472;2022-11-20T01:23:02;2.90;99.90
52016;DHT22;38032;53.326;6.472;2022-11-20T01:25:28;2.90;99.90
52016;DHT22;38032;53.326;6.472;2022-11-20T01:27:54;2.90;99.90
52016;DHT22;38032;53.326;6.472;2022-11-20T01:30:20;2.90;99.90
52016;DHT22;38032;53.326;6.472;2022-11-20T01:32:46;2.90;99.90
52016;DHT22;38032;53.326;6.472;2022-11-20T01:35:12;2.90;99.90
52016;DHT22;38032;53.326;6.472;2022-11-20T01:37:37;3.00;99.90
52016;DHT22;38032;53.326;6.472;2022-11-20T01:40:04;3.00;99.90
52016;DHT22;38032;53.326;6.472;2022-11-20T01:42:30;3.00;99.90
52016;DHT22;38032;53.326;6.472;2022-11-20T01:48:11;3.00;99.90
52016;DHT22;38032;53.326;6.472;2022-11-20T01:50:37;2.90;99.90
52016;DHT22;38032;53.326;6.472;2022-11-20T01:53:07;2.90;99.90
52016;DHT22;38032;53.326;6.472;2022-11-20T01:55:37;2.90;99.90
52016;DHT22;38032;53.326;6.472;2022-11-20T01:58:06;2.90;99.90
52016;DHT22;38032;53.326;6.472;2022-11-20T02:00:32;2.80;99.90
52016;DHT22;38032;53.326;6.472;2022-11-20T02:03:01;2.90;99.90
52016;DHT22;38032;53.326;6.472;2022-11-20T02:05:34;2.90;99.90
52016;DHT22;38032;53.326;6.472;2022-11-20T02:08:03;2.80;99.90
52016;DHT22;38032;53.326;6.472;2022-11-20T02:10:30;2.80;99.90
52016;DHT22;38032;53.326;6.472;2022-11-20T02:12:56;2.80;99.90
52016;DHT22;38032;53.326;6.472;2022-11-20T02:15:41;2.80;99.90
52016;DHT22;38032;53.326;6.472;2022-11-20T02:18:08;2.80;99.90
52016;DHT22;38032;53.326;6.472;2022-11-20T02:20:34;2.80;99.90
52016;DHT22;38032;53.326;6.472;2022-11-20T02:25:28;2.80;99.90
52016;DHT22;38032;53.326;6.472;2022-11-20T02:27:56;2.80;99.90
52016;DHT22;38032;53.326;6.472;2022-11-20T02:30:21;2.80;99.90
52016;DHT22;38032;53.326;6.472;2022-11-20T02:32:47;2.80;99.90
52016;DHT22;38032;53.326;6.472;2022-11-20T02:37:48;2.90;99.90
52016;DHT22;38032;53.326;6.472;2022-11-20T02:40:15;2.90;99.90
52016;DHT22;38032;53.326;6.472;2022-11-20T02:42:41;2.90;99.90
52016;DHT22;38032;53.326;6.472;2022-11-20T02:45:08;2.80;99.90
52016;DHT22;38032;53.326;6.472;2022-11-20T02:47:34;2.80;99.90
52016;DHT22;38032;53.326;6.472;2022-11-20T02:50:00;2.80;99.90
52016;DHT22;38032;53.326;6.472;2022-11-20T02:52:26;2.90;99.90
52016;DHT22;38032;53.326;6.472;2022-11-20T02:54:52;2.90;99.90
52016;DHT22;38032;53.326;6.472;2022-11-20T02:57:18;2.90;99.90
52016;DHT22;38032;53.326;6.472;2022-11-20T02:59:44;2.90;99.90
52016;DHT22;38032;53.326;6.472;2022-11-20T03:02:10;3.00;99.90
52016;DHT22;38032;53.326;6.472;2022-11-20T03:04:35;3.00;99.90
52016;DHT22;38032;53.326;6.472;2022-11-20T03:07:01;3.00;99.90
52016;DHT22;38032;53.326;6.472;2022-11-20T03:09:27;3.00;99.90
52016;DHT22;38032;53.326;6.472;2022-11-20T03:11:53;3.00;99.90
52016;DHT22;38032;53.326;6.472;2022-11-20T03:14:19;3.00;99.90
52016;DHT22;38032;53.326;6.472;2022-11-20T03:16:45;3.00;99.90
52016;DHT22;38032;53.326;6.472;2022-11-20T03:19:12;3.00;99.90
52016;DHT22;38032;53.326;6.472;2022-11-20T03:21:37;3.00;99.90
52016;DHT22;38032;53.326;6.472;2022-11-20T03:24:04;3.00;99.90
52016;DHT22;38032;53.326;6.472;2022-11-20T03:26:30;3.00;99.90
52016;DHT22;38032;53.326;6.472;2022-11-20T03:28:58;2.90;99.90
52016;DHT22;38032;53.326;6.472;2022-11-20T03:31:26;2.90;99.90
52016;DHT22;38032;53.326;6.472;2022-11-20T03:33:53;2.90;99.90
52016;DHT22;38032;53.326;6.472;2022-11-20T03:36:20;2.90;99.90
52016;DHT22;38032;53.326;6.472;2022-11-20T03:38:46;2.90;99.90
52016;DHT22;38032;53.326;6.472;2022-11-20T03:41:17;3.00;99.90
52016;DHT22;38032;53.326;6.472;2022-11-20T03:43:47;3.00;99.90
52016;DHT22;38032;53.326;6.472;2022-11-20T03:46:13;3.00;99.90
52016;DHT22;38032;53.326;6.472;2022-11-20T03:48:39;3.00;99.90
52016;DHT22;38032;53.326;6.472;2022-11-20T03:51:11;3.00;99.90
52016;DHT22;38032;53.326;6.472;2022-11-20T03:53:39;3.00;99.90
52016;DHT22;38032;53.326;6.472;2022-11-20T03:56:05;3.00;99.90
52016;DHT22;38032;53.326;6.472;2022-11-20T03:58:33;3.00;99.90
52016;DHT22;38032;53.326;6.472;2022-11-20T04:01:06;3.00;99.90
52016;DHT22;38032;53.326;6.472;2022-11-20T04:03:32;2.90;99.90
52016;DHT22;38032;53.326;6.472;2022-11-20T04:06:05;2.90;99.90
52016;DHT22;38032;53.326;6.472;2022-11-20T04:08:31;2.90;99.90
52016;DHT22;38032;53.326;6.472;2022-11-20T04:11:08;2.90;99.90
52016;DHT22;38032;53.326;6.472;2022-11-20T04:13:34;2.90;99.90
52016;DHT22;38032;53.326;6.472;2022-11-20T04:16:00;2.90;99.90
52016;DHT22;38032;53.326;6.472;2022-11-20T04:18:26;2.80;99.90
52016;DHT22;38032;53.326;6.472;2022-11-20T04:20:51;2.80;99.90
52016;DHT22;38032;53.326;6.472;2022-11-20T04:23:17;2.80;99.90
52016;DHT22;38032;53.326;6.472;2022-11-20T04:25:43;2.80;99.90
52016;DHT22;38032;53.326;6.472;2022-11-20T04:28:09;2.80;99.90
52016;DHT22;38032;53.326;6.472;2022-11-20T04:30:35;2.80;99.90
52016;DHT22;38032;53.326;6.472;2022-11-20T04:33:01;2.90;99.90
52016;DHT22;38032;53.326;6.472;2022-11-20T04:35:26;2.90;99.90
52016;DHT22;38032;53.326;6.472;2022-11-20T04:37:52;2.90;99.90
52016;DHT22;38032;53.326;6.472;2022-11-20T04:40:18;2.80;99.90
52016;DHT22;38032;53.326;6.472;2022-11-20T04:42:44;2.90;99.90
52016;DHT22;38032;53.326;6.472;2022-11-20T04:45:10;2.90;99.90
52016;DHT22;38032;53.326;6.472;2022-11-20T04:47:35;2.90;99.90
52016;DHT22;38032;53.326;6.472;2022-11-20T04:50:02;2.90;99.90
52016;DHT22;38032;53.326;6.472;2022-11-20T04:52:28;2.90;99.90
52016;DHT22;38032;53.326;6.472;2022-11-20T04:54:53;2.90;99.90
52016;DHT22;38032;53.326;6.472;2022-11-20T04:57:20;2.90;99.90
52016;DHT22;38032;53.326;6.472;2022-11-20T04:59:46;2.90;99.90
52016;DHT22;38032;53.326;6.472;2022-11-20T05:02:11;2.90;99.90
52016;DHT22;38032;53.326;6.472;2022-11-20T05:04:37;2.80;99.90
52016;DHT22;38032;53.326;6.472;2022-11-20T05:07:03;2.80;99.90
52016;DHT22;38032;53.326;6.472;2022-11-20T05:09:29;2.80;99.90
52016;DHT22;38032;53.326;6.472;2022-11-20T05:11:55;2.80;99.90
52016;DHT22;38032;53.326;6.472;2022-11-20T05:14:21;2.80;99.90
52016;DHT22;38032;53.326;6.472;2022-11-20T05:16:47;2.90;99.90
52016;DHT22;38032;53.326;6.472;2022-11-20T05:19:13;2.90;99.90
52016;DHT22;38032;53.326;6.472;2022-11-20T05:21:39;2.90;99.90
52016;DHT22;38032;53.326;6.472;2022-11-20T05:24:05;2.90;99.90
52016;DHT22;38032;53.326;6.472;2022-11-20T05:26:31;2.90;99.90
52016;DHT22;38032;53.326;6.472;2022-11-20T05:28:57;2.90;99.90
52016;DHT22;38032;53.326;6.472;2022-11-20T05:31:24;2.90;99.90
52016;DHT22;38032;53.326;6.472;2022-11-20T05:33:50;2.90;99.90
52016;DHT22;38032;53.326;6.472;2022-11-20T05:36:17;2.90;99.90
52016;DHT22;38032;53.326;6.472;2022-11-20T05:38:44;2.90;99.90
52016;DHT22;38032;53.326;6.472;2022-11-20T05:41:15;3.00;99.90
52016;DHT22;38032;53.326;6.472;2022-11-20T05:43:43;3.00;99.90
52016;DHT22;38032;53.326;6.472;2022-11-20T05:46:12;3.00;99.90
52016;DHT22;38032;53.326;6.472;2022-11-20T05:48:39;3.00;99.90
52016;DHT22;38032;53.326;6.472;2022-11-20T05:51:07;2.90;99.90
52016;DHT22;38032;53.326;6.472;2022-11-20T05:53:34;2.90;99.90
52016;DHT22;38032;53.326;6.472;2022-11-20T05:56:03;2.90;99.90
52016;DHT22;38032;53.326;6.472;2022-11-20T05:58:31;2.90;99.90
52016;DHT22;38032;53.326;6.472;2022-11-20T06:01:07;2.80;99.90
52016;DHT22;38032;53.326;6.472;2022-11-20T06:03:33;2.80;99.90
52016;DHT22;38032;53.326;6.472;2022-11-20T06:06:00;2.80;99.90
52016;DHT22;38032;53.326;6.472;2022-11-20T06:08:26;2.80;99.90
52016;DHT22;38032;53.326;6.472;2022-11-20T06:10:51;2.80;99.90
52016;DHT22;38032;53.326;6.472;2022-11-20T06:13:17;2.80;99.90
52016;DHT22;38032;53.326;6.472;2022-11-20T06:15:49;2.80;99.90
52016;DHT22;38032;53.326;6.472;2022-11-20T06:18:15;2.80;99.90
52016;DHT22;38032;53.326;6.472;2022-11-20T06:20:41;2.80;99.90
52016;DHT22;38032;53.326;6.472;2022-11-20T06:23:07;2.80;99.90
52016;DHT22;38032;53.326;6.472;2022-11-20T06:25:32;2.90;99.90
52016;DHT22;38032;53.326;6.472;2022-11-20T06:27:58;2.90;99.90
52016;DHT22;38032;53.326;6.472;2022-11-20T06:30:24;2.90;99.90
52016;DHT22;38032;53.326;6.472;2022-11-20T06:32:50;2.90;99.90
52016;DHT22;38032;53.326;6.472;2022-11-20T06:35:17;2.90;99.90
52016;DHT22;38032;53.326;6.472;2022-11-20T06:37:43;2.90;99.90
52016;DHT22;38032;53.326;6.472;2022-11-20T06:40:09;3.00;99.90
52016;DHT22;38032;53.326;6.472;2022-11-20T06:42:35;3.00;99.90
52016;DHT22;38032;53.326;6.472;2022-11-20T06:45:01;3.00;99.90
52016;DHT22;38032;53.326;6.472;2022-11-20T06:47:27;3.00;99.90
52016;DHT22;38032;53.326;6.472;2022-11-20T06:49:53;3.10;99.90
52016;DHT22;38032;53.326;6.472;2022-11-20T06:52:19;3.10;99.90
52016;DHT22;38032;53.326;6.472;2022-11-20T06:54:45;3.10;99.90
52016;DHT22;38032;53.326;6.472;2022-11-20T06:57:10;3.10;99.90
52016;DHT22;38032;53.326;6.472;2022-11-20T06:59:36;3.20;99.90
52016;DHT22;38032;53.326;6.472;2022-11-20T07:02:02;3.20;99.90
52016;DHT22;38032;53.326;6.472;2022-11-20T07:04:28;3.20;99.90
52016;DHT22;38032;53.326;6.472;2022-11-20T07:06:54;3.20;99.90
52016;DHT22;38032;53.326;6.472;2022-11-20T07:09:20;3.20;99.90
52016;DHT22;38032;53.326;6.472;2022-11-20T07:11:45;3.20;99.90
52016;DHT22;38032;53.326;6.472;2022-11-20T07:14:11;3.30;99.90
52016;DHT22;38032;53.326;6.472;2022-11-20T07:16:37;3.30;99.90
52016;DHT22;38032;53.326;6.472;2022-11-20T07:19:04;3.30;99.90
52016;DHT22;38032;53.326;6.472;2022-11-20T07:21:30;3.30;99.90
52016;DHT22;38032;53.326;6.472;2022-11-20T07:23:56;3.20;99.90
52016;DHT22;38032;53.326;6.472;2022-11-20T07:26:22;3.20;99.90
52016;DHT22;38032;53.326;6.472;2022-11-20T07:28:48;3.20;99.90
52016;DHT22;38032;53.326;6.472;2022-11-20T07:31:14;3.30;99.90
52016;DHT22;38032;53.326;6.472;2022-11-20T07:33:40;3.30;99.90
52016;DHT22;38032;53.326;6.472;2022-11-20T07:36:06;3.30;99.90
52016;DHT22;38032;53.326;6.472;2022-11-20T07:38:32;3.30;99.90
52016;DHT22;38032;53.326;6.472;2022-11-20T07:40:58;3.30;99.90
52016;DHT22;38032;53.326;6.472;2022-11-20T07:43:24;3.30;99.90
52016;DHT22;38032;53.326;6.472;2022-11-20T07:45:51;3.30;99.90
52016;DHT22;38032;53.326;6.472;2022-11-20T07:48:16;3.30;99.90
52016;DHT22;38032;53.326;6.472;2022-11-20T07:50:42;3.30;99.90
52016;DHT22;38032;53.326;6.472;2022-11-20T07:53:08;3.30;99.90
52016;DHT22;38032;53.326;6.472;2022-11-20T07:55:34;3.30;99.90
52016;DHT22;38032;53.326;6.472;2022-11-20T07:58:00;3.30;99.90
52016;DHT22;38032;53.326;6.472;2022-11-20T08:00:26;3.30;99.90
52016;DHT22;38032;53.326;6.472;2022-11-20T08:02:52;3.40;99.90
52016;DHT22;38032;53.326;6.472;2022-11-20T08:05:18;3.40;99.90
52016;DHT22;38032;53.326;6.472;2022-11-20T08:07:44;3.40;99.90
52016;DHT22;38032;53.326;6.472;2022-11-20T08:10:12;3.40;99.90
52016;DHT22;38032;53.326;6.472;2022-11-20T08:12:46;3.40;99.90
52016;DHT22;38032;53.326;6.472;2022-11-20T08:15:31;3.40;99.90
52016;DHT22;38032;53.326;6.472;2022-11-20T08:18:03;3.40;99.90
52016;DHT22;38032;53.326;6.472;2022-11-20T08:20:29;3.30;99.90
52016;DHT22;38032;53.326;6.472;2022-11-20T08:22:59;3.30;99.90
52016;DHT22;38032;53.326;6.472;2022-11-20T08:25:27;3.40;99.90
52016;DHT22;38032;53.326;6.472;2022-11-20T08:27:53;3.30;99.90
52016;DHT22;38032;53.326;6.472;2022-11-20T08:30:19;3.30;99.90
52016;DHT22;38032;53.326;6.472;2022-11-20T08:32:45;3.40;99.90
52016;DHT22;38032;53.326;6.472;2022-11-20T08:35:11;3.40;99.90
52016;DHT22;38032;53.326;6.472;2022-11-20T08:37:37;3.40;99.90
52016;DHT22;38032;53.326;6.472;2022-11-20T08:40:09;3.40;99.90
52016;DHT22;38032;53.326;6.472;2022-11-20T08:42:35;3.40;99.90
52016;DHT22;38032;53.326;6.472;2022-11-20T08:45:01;3.50;99.90
52016;DHT22;38032;53.326;6.472;2022-11-20T08:47:27;3.50;99.90
52016;DHT22;38032;53.326;6.472;2022-11-20T08:49:53;3.50;99.90
52016;DHT22;38032;53.326;6.472;2022-11-20T08:52:19;3.50;99.90
52016;DHT22;38032;53.326;6.472;2022-11-20T08:54:45;3.50;99.90
52016;DHT22;38032;53.326;6.472;2022-11-20T08:57:11;3.60;99.90
52016;DHT22;38032;53.326;6.472;2022-11-20T08:59:37;3.60;99.90
52016;DHT22;38032;53.326;6.472;2022-11-20T09:02:02;3.60;99.90
52016;DHT22;38032;53.326;6.472;2022-11-20T09:04:28;3.70;99.90
52016;DHT22;38032;53.326;6.472;2022-11-20T09:06:54;3.70;99.90
52016;DHT22;38032;53.326;6.472;2022-11-20T09:09:20;3.70;99.90
52016;DHT22;38032;53.326;6.472;2022-11-20T09:11:46;3.80;99.90
52016;DHT22;38032;53.326;6.472;2022-11-20T09:14:12;3.80;99.90
52016;DHT22;38032;53.326;6.472;2022-11-20T09:16:38;3.80;99.90
52016;DHT22;38032;53.326;6.472;2022-11-20T09:19:03;3.90;99.90
52016;DHT22;38032;53.326;6.472;2022-11-20T09:21:29;3.90;99.90
52016;DHT22;38032;53.326;6.472;2022-11-20T09:23:55;3.90;99.90
52016;DHT22;38032;53.326;6.472;2022-11-20T09:26:21;4.00;99.90
52016;DHT22;38032;53.326;6.472;2022-11-20T09:28:47;4.10;99.90
52016;DHT22;38032;53.326;6.472;2022-11-20T09:31:24;4.20;99.90
52016;DHT22;38032;53.326;6.472;2022-11-20T09:33:51;4.30;99.90
52016;DHT22;38032;53.326;6.472;2022-11-20T09:36:17;4.40;99.90
52016;DHT22;38032;53.326;6.472;2022-11-20T09:38:45;4.50;99.90
52016;DHT22;38032;53.326;6.472;2022-11-20T09:41:41;4.60;99.90
52016;DHT22;38032;53.326;6.472;2022-11-20T09:44:40;4.70;99.90
52016;DHT22;38032;53.326;6.472;2022-11-20T09:47:27;4.80;99.90
52016;DHT22;38032;53.326;6.472;2022-11-20T09:50:07;4.90;99.90
52016;DHT22;38032;53.326;6.472;2022-11-20T09:53:01;5.00;99.90
52016;DHT22;38032;53.326;6.472;2022-11-20T09:55:30;5.10;99.90
52016;DHT22;38032;53.326;6.472;2022-11-20T09:57:58;5.10;99.90
52016;DHT22;38032;53.326;6.472;2022-11-20T10:00:25;5.20;99.90
52016;DHT22;38032;53.326;6.472;2022-11-20T10:05:42;5.30;99.90
52016;DHT22;38032;53.326;6.472;2022-11-20T10:08:14;5.40;99.90
52016;DHT22;38032;53.326;6.472;2022-11-20T10:10:49;5.40;99.90
52016;DHT22;38032;53.326;6.472;2022-11-20T10:13:35;5.50;99.90
52016;DHT22;38032;53.326;6.472;2022-11-20T10:24:28;5.60;99.90
52016;DHT22;38032;53.326;6.472;2022-11-20T10:27:09;5.60;99.90
52016;DHT22;38032;53.326;6.472;2022-11-20T10:29:42;5.70;99.90
52016;DHT22;38032;53.326;6.472;2022-11-20T10:32:14;5.80;99.90
52016;DHT22;38032;53.326;6.472;2022-11-20T10:37:24;5.80;99.90
52016;DHT22;38032;53.326;6.472;2022-11-20T10:39:53;5.90;99.90
52016;DHT22;38032;53.326;6.472;2022-11-20T10:42:34;5.90;99.90
52016;DHT22;38032;53.326;6.472;2022-11-20T10:47:42;6.00;99.90
52016;DHT22;38032;53.326;6.472;2022-11-20T10:50:12;6.10;99.90
52016;DHT22;38032;53.326;6.472;2022-11-20T10:53:04;6.20;99.90
52016;DHT22;38032;53.326;6.472;2022-11-20T10:55:43;6.20;99.90
52016;DHT22;38032;53.326;6.472;2022-11-20T11:00:39;6.40;99.90
52016;DHT22;38032;53.326;6.472;2022-11-20T11:03:25;6.50;99.90
52016;DHT22;38032;53.326;6.472;2022-11-20T11:06:03;6.50;99.90
52016;DHT22;38032;53.326;6.472;2022-11-20T11:08:37;6.50;99.90
52016;DHT22;38032;53.326;6.472;2022-11-20T11:13:44;6.60;99.90
52016;DHT22;38032;53.326;6.472;2022-11-20T11:16:23;6.60;99.90
52016;DHT22;38032;53.326;6.472;2022-11-20T11:18:49;6.50;99.90
52016;DHT22;38032;53.326;6.472;2022-11-20T11:21:29;6.50;99.90
52016;DHT22;38032;53.326;6.472;2022-11-20T11:24:19;6.50;99.90
52016;DHT22;38032;53.326;6.472;2022-11-20T11:27:03;6.50;99.90
52016;DHT22;38032;53.326;6.472;2022-11-20T11:29:33;6.40;99.90
52016;DHT22;38032;53.326;6.472;2022-11-20T11:32:06;6.30;99.90
52016;DHT22;38032;53.326;6.472;2022-11-20T11:34:33;6.30;99.90
52016;DHT22;38032;53.326;6.472;2022-11-20T11:37:00;6.20;99.90
52016;DHT22;38032;53.326;6.472;2022-11-20T11:39:30;6.30;99.90
52016;DHT22;38032;53.326;6.472;2022-11-20T11:41:57;6.20;99.90
52016;DHT22;38032;53.326;6.472;2022-11-20T11:44:30;6.20;99.90
52016;DHT22;38032;53.326;6.472;2022-11-20T11:47:29;6.10;99.90
52016;DHT22;38032;53.326;6.472;2022-11-20T11:52:45;5.90;99.90
52016;DHT22;38032;53.326;6.472;2022-11-20T11:55:18;5.80;99.90
52016;DHT22;38032;53.326;6.472;2022-11-20T11:57:54;5.70;99.90
52016;DHT22;38032;53.326;6.472;2022-11-20T12:00:22;5.60;99.90
52016;DHT22;38032;53.326;6.472;2022-11-20T12:02:59;5.50;99.90
52016;DHT22;38032;53.326;6.472;2022-11-20T12:05:39;5.50;99.90
52016;DHT22;38032;53.326;6.472;2022-11-20T12:08:13;5.40;99.90
52016;DHT22;38032;53.326;6.472;2022-11-20T12:10:59;5.30;99.90
52016;DHT22;38032;53.326;6.472;2022-11-20T12:13:36;5.30;99.90
52016;DHT22;38032;53.326;6.472;2022-11-20T12:16:05;5.30;99.90
52016;DHT22;38032;53.326;6.472;2022-11-20T12:18:31;5.30;99.90
52016;DHT22;38032;53.326;6.472;2022-11-20T12:24:03;5.40;99.90
52016;DHT22;38032;53.326;6.472;2022-11-20T12:26:46;5.50;99.90
52016;DHT22;38032;53.326;6.472;2022-11-20T12:29:28;5.50;99.90
52016;DHT22;38032;53.326;6.472;2022-11-20T12:37:43;5.70;99.90
52016;DHT22;38032;53.326;6.472;2022-11-20T12:40:27;5.70;99.90
52016;DHT22;38032;53.326;6.472;2022-11-20T12:48:37;5.80;99.90
52016;DHT22;38032;53.326;6.472;2022-11-20T12:51:18;5.90;99.90
52016;DHT22;38032;53.326;6.472;2022-11-20T13:02:19;5.80;99.90
52016;DHT22;38032;53.326;6.472;2022-11-20T13:05:13;5.80;99.90
52016;DHT22;38032;53.326;6.472;2022-11-20T13:07:44;5.80;99.90
52016;DHT22;38032;53.326;6.472;2022-11-20T13:10:21;5.80;99.90
52016;DHT22;38032;53.326;6.472;2022-11-20T13:12:57;5.70;99.90
52016;DHT22;38032;53.326;6.472;2022-11-20T13:15:40;5.70;99.90
52016;DHT22;38032;53.326;6.472;2022-11-20T13:18:10;5.60;99.90
52016;DHT22;38032;53.326;6.472;2022-11-20T13:20:45;5.70;99.90
52016;DHT22;38032;53.326;6.472;2022-11-20T13:23:11;5.70;99.90
52016;DHT22;38032;53.326;6.472;2022-11-20T13:25:48;5.70;99.90
52016;DHT22;38032;53.326;6.472;2022-11-20T13:30:50;5.70;99.90
52016;DHT22;38032;53.326;6.472;2022-11-20T13:33:30;5.70;99.90
52016;DHT22;38032;53.326;6.472;2022-11-20T13:35:59;5.70;99.90
52016;DHT22;38032;53.326;6.472;2022-11-20T13:38:26;5.70;99.90
52016;DHT22;38032;53.326;6.472;2022-11-20T13:40:56;5.70;99.90
52016;DHT22;38032;53.326;6.472;2022-11-20T13:43:29;5.70;99.90
52016;DHT22;38032;53.326;6.472;2022-11-20T13:46:03;5.70;99.90
52016;DHT22;38032;53.326;6.472;2022-11-20T13:48:33;5.60;99.90
52016;DHT22;38032;53.326;6.472;2022-11-20T13:51:28;5.70;99.90
52016;DHT22;38032;53.326;6.472;2022-11-20T13:56:37;5.70;99.90
52016;DHT22;38032;53.326;6.472;2022-11-20T13:59:22;5.70;99.90
52016;DHT22;38032;53.326;6.472;2022-11-20T14:01:51;5.70;99.90
52016;DHT22;38032;53.326;6.472;2022-11-20T14:04:26;5.70;99.90
52016;DHT22;38032;53.326;6.472;2022-11-20T14:06:52;5.60;99.90
52016;DHT22;38032;53.326;6.472;2022-11-20T14:09:30;5.60;99.90
52016;DHT22;38032;53.326;6.472;2022-11-20T14:11:57;5.60;99.90
52016;DHT22;38032;53.326;6.472;2022-11-20T14:14:25;5.60;99.90
52016;DHT22;38032;53.326;6.472;2022-11-20T14:16:52;5.50;99.90
52016;DHT22;38032;53.326;6.472;2022-11-20T14:19:23;5.50;99.90
52016;DHT22;38032;53.326;6.472;2022-11-20T14:21:55;5.50;99.90
52016;DHT22;38032;53.326;6.472;2022-11-20T14:24:31;5.50;99.90
52016;DHT22;38032;53.326;6.472;2022-11-20T14:26:57;5.40;99.90
52016;DHT22;38032;53.326;6.472;2022-11-20T14:29:29;5.40;99.90
52016;DHT22;38032;53.326;6.472;2022-11-20T14:31:59;5.40;99.90
52016;DHT22;38032;53.326;6.472;2022-11-20T14:34:27;5.30;99.90
52016;DHT22;38032;53.326;6.472;2022-11-20T14:36:58;5.30;99.90
52016;DHT22;38032;53.326;6.472;2022-11-20T14:41:55;5.20;99.90
52016;DHT22;38032;53.326;6.472;2022-11-20T14:44:27;5.20;99.90
52016;DHT22;38032;53.326;6.472;2022-11-20T14:46:54;5.10;99.90
52016;DHT22;38032;53.326;6.472;2022-11-20T14:49:21;5.10;99.90
52016;DHT22;38032;53.326;6.472;2022-11-20T14:51:57;5.00;99.90
52016;DHT22;38032;53.326;6.472;2022-11-20T14:54:24;4.90;99.90
52016;DHT22;38032;53.326;6.472;2022-11-20T14:57:00;4.80;99.90
52016;DHT22;38032;53.326;6.472;2022-11-20T14:59:29;4.80;99.90
52016;DHT22;38032;53.326;6.472;2022-11-20T15:02:03;4.70;99.90
52016;DHT22;38032;53.326;6.472;2022-11-20T15:04:29;4.70;99.90
52016;DHT22;38032;53.326;6.472;2022-11-20T15:06:58;4.60;99.90
52016;DHT22;38032;53.326;6.472;2022-11-20T15:09:24;4.60;99.90
52016;DHT22;38032;53.326;6.472;2022-11-20T15:11:56;4.50;99.90
52016;DHT22;38032;53.326;6.472;2022-11-20T15:14:23;4.50;99.90
52016;DHT22;38032;53.326;6.472;2022-11-20T15:16:50;4.50;99.90
52016;DHT22;38032;53.326;6.472;2022-11-20T15:19:20;4.40;99.90
52016;DHT22;38032;53.326;6.472;2022-11-20T15:21:46;4.40;99.90
52016;DHT22;38032;53.326;6.472;2022-11-20T15:24:12;4.40;99.90
52016;DHT22;38032;53.326;6.472;2022-11-20T15:26:38;4.40;99.90
52016;DHT22;38032;53.326;6.472;2022-11-20T15:29:09;4.30;99.90
52016;DHT22;38032;53.326;6.472;2022-11-20T15:31:36;4.30;99.90
52016;DHT22;38032;53.326;6.472;2022-11-20T15:34:04;4.20;99.90
52016;DHT22;38032;53.326;6.472;2022-11-20T15:36:32;4.10;99.90
52016;DHT22;38032;53.326;6.472;2022-11-20T15:38:58;4.10;99.90
52016;DHT22;38032;53.326;6.472;2022-11-20T15:41:24;4.00;99.90
52016;DHT22;38032;53.326;6.472;2022-11-20T15:43:50;4.00;99.90
52016;DHT22;38032;53.326;6.472;2022-11-20T15:46:18;4.00;99.90
52016;DHT22;38032;53.326;6.472;2022-11-20T15:48:54;4.00;99.90
52016;DHT22;38032;53.326;6.472;2022-11-20T15:51:30;3.90;99.90
52016;DHT22;38032;53.326;6.472;2022-11-20T15:53:57;3.90;99.90
52016;DHT22;38032;53.326;6.472;2022-11-20T15:56:23;3.90;99.90
52016;DHT22;38032;53.326;6.472;2022-11-20T15:58:49;3.90;99.90
52016;DHT22;38032;53.326;6.472;2022-11-20T16:01:17;3.90;99.90
52016;DHT22;38032;53.326;6.472;2022-11-20T16:03:44;3.90;99.90
52016;DHT22;38032;53.326;6.472;2022-11-20T16:06:10;3.80;99.90
52016;DHT22;38032;53.326;6.472;2022-11-20T16:08:36;3.80;99.90
52016;DHT22;38032;53.326;6.472;2022-11-20T16:11:03;3.80;99.90
52016;DHT22;38032;53.326;6.472;2022-11-20T16:13:31;3.70;99.90
52016;DHT22;38032;53.326;6.472;2022-11-20T16:16:23;3.80;99.90
52016;DHT22;38032;53.326;6.472;2022-11-20T16:18:50;3.80;99.90
52016;DHT22;38032;53.326;6.472;2022-11-20T16:21:16;3.80;99.90
52016;DHT22;38032;53.326;6.472;2022-11-20T16:23:42;3.80;99.90
52016;DHT22;38032;53.326;6.472;2022-11-20T16:26:11;3.80;99.90
52016;DHT22;38032;53.326;6.472;2022-11-20T16:28:37;3.80;99.90
52016;DHT22;38032;53.326;6.472;2022-11-20T16:31:10;3.70;99.90
52016;DHT22;38032;53.326;6.472;2022-11-20T16:33:37;3.70;99.90
52016;DHT22;38032;53.326;6.472;2022-11-20T16:36:08;3.70;99.90
52016;DHT22;38032;53.326;6.472;2022-11-20T16:38:34;3.70;99.90
52016;DHT22;38032;53.326;6.472;2022-11-20T16:41:00;3.70;99.90
52016;DHT22;38032;53.326;6.472;2022-11-20T16:43:27;3.60;99.90
52016;DHT22;38032;53.326;6.472;2022-11-20T16:45:52;3.60;99.90
52016;DHT22;38032;53.326;6.472;2022-11-20T16:48:18;3.60;99.90
52016;DHT22;38032;53.326;6.472;2022-11-20T16:50:46;3.60;99.90
52016;DHT22;38032;53.326;6.472;2022-11-20T16:53:12;3.60;99.90
52016;DHT22;38032;53.326;6.472;2022-11-20T16:55:38;3.60;99.90
52016;DHT22;38032;53.326;6.472;2022-11-20T16:58:04;3.60;99.90
52016;DHT22;38032;53.326;6.472;2022-11-20T17:00:30;3.60;99.90